»·PEaware :: N201TH KPDX-KSLE

N201TH :: KPDX-KSLE

FLIGHT INFORMATION

Flight Status: Arrived
Operator: Privately registered:
United States
More flights under this callsign
Pilot: Anonymous 26576 (26576)
Aircraft: CESSNA 172 SKYHAWK
(C172)
More flights by this aircraft type
Origin: KPDX Portland Intl
United States
Destination: KSLE McNary
United States
More flights between these airports :: More routes between these airports
Route: +PTLD1 UBG
File this flight plan on PilotEdge
Remarks: +CW /
Altitude:
(Current/Filed)
8,000ft
Speed:
(Current/Filed)
105kts
Departed: 11-Jan-20 02:09 PM
Arrived: 11-Jan-20 03:00 PM
Distance/Time
Traveled:
44nm/0:51
Distance/Time
To Go:
Arrived

Flight Plot

Page will automatically refresh every two minutes.

Flight plan parsing failed; only flown route is shown


Map Options




Map Legend


Flown Route
Filed Route
Departure Airport
Arrival Airport
Navaid (VOR, NDB)
Fix

Horizontal Profiles

Position Reports

Time Latitude Longitude Heading Altitude Ground
Speed
11-Jan-20 13:56 45.587608 -122.584015 210 20ft 0kts
11-Jan-20 13:57 45.587608 -122.584015 210 20ft 0kts
11-Jan-20 13:58 45.587608 -122.584015 210 20ft 0kts
11-Jan-20 13:59 45.587608 -122.584015 210 20ft 0kts
11-Jan-20 14:00 45.587608 -122.584015 210 20ft 0kts
11-Jan-20 14:01 45.587611 -122.584059 345 20ft 3kts
11-Jan-20 14:02 45.586476 -122.577416 115 20ft 31kts
11-Jan-20 14:03 45.582813 -122.567379 70 20ft 2kts
11-Jan-20 14:04 45.582814 -122.567376 70 20ft 0kts
11-Jan-20 14:05 45.582814 -122.567372 70 20ft 0kts
11-Jan-20 14:06 45.582814 -122.567372 70 20ft 0kts
11-Jan-20 14:07 45.582814 -122.567372 70 20ft 0kts
11-Jan-20 14:08 45.584415 -122.569022 299 20ft 52kts
11-Jan-20 14:09 45.595257 -122.590344 308 914ft 68kts
11-Jan-20 14:10 45.604382 -122.614233 297 4599ft 66kts
11-Jan-20 14:11 45.613905 -122.637983 295 5202ft 70kts
11-Jan-20 14:12 45.624456 -122.661133 294 5779ft 70kts
11-Jan-20 14:13 45.634059 -122.685952 294 6283ft 72kts
11-Jan-20 14:14 45.643131 -122.711702 295 6763ft 72kts
11-Jan-20 14:15 45.654640 -122.735301 302 7235ft 75kts
11-Jan-20 14:16 45.651022 -122.758648 201 7763ft 76kts
11-Jan-20 14:17 45.630544 -122.772022 212 8098ft 85kts
11-Jan-20 14:18 45.608229 -122.787444 212 8432ft 94kts
11-Jan-20 14:19 45.582299 -122.805110 218 8319ft 105kts
11-Jan-20 14:20 45.558890 -122.829147 218 7982ft 105kts
11-Jan-20 14:21 45.532988 -122.851878 216 7934ft 116kts
11-Jan-20 14:22 45.505352 -122.875677 215 7909ft 118kts
11-Jan-20 14:23 45.475942 -122.896188 209 7898ft 117kts
11-Jan-20 14:24 45.446556 -122.916019 204 7887ft 116kts
11-Jan-20 14:25 45.416032 -122.932210 209 8008ft 114kts
11-Jan-20 14:26 45.388522 -122.955809 208 8108ft 117kts
11-Jan-20 14:27 45.357533 -122.975115 199 8007ft 129kts
11-Jan-20 14:28 45.321799 -122.973173 185 7938ft 131kts
11-Jan-20 14:29 45.286233 -122.968345 177 7954ft 127kts
11-Jan-20 14:30 45.250848 -122.969520 192 7892ft 127kts
11-Jan-20 14:31 45.216175 -122.972048 178 7926ft 126kts
11-Jan-20 14:32 45.181733 -122.964049 161 7987ft 126kts
11-Jan-20 14:33 45.148878 -122.945990 160 8023ft 127kts
11-Jan-20 14:34 45.115506 -122.929029 166 7974ft 129kts
11-Jan-20 14:35 45.081703 -122.913434 160 7926ft 125kts
11-Jan-20 14:36 45.048213 -122.900185 164 7852ft 127kts
11-Jan-20 14:37 45.017374 -122.880757 161 7999ft 119kts
11-Jan-20 14:38 44.986102 -122.865746 163 8084ft 121kts
11-Jan-20 14:39 44.953613 -122.849339 158 7956ft 131kts
11-Jan-20 14:40 44.920203 -122.832534 166 7187ft 127kts
11-Jan-20 14:41 44.886551 -122.819835 167 6394ft 125kts
11-Jan-20 14:42 44.854800 -122.800457 159 5609ft 124kts
11-Jan-20 14:43 44.822495 -122.783770 162 4856ft 123kts
11-Jan-20 14:44 44.790582 -122.767278 157 4146ft 122kts
11-Jan-20 14:45 44.765007 -122.782529 233 3478ft 108kts
11-Jan-20 14:46 44.745003 -122.813173 232 2945ft 109kts
11-Jan-20 14:47 44.729000 -122.844771 278 2901ft 90kts
11-Jan-20 14:48 44.746845 -122.868445 333 2825ft 93kts
11-Jan-20 14:49 44.766565 -122.883265 324 2754ft 73kts
11-Jan-20 14:50 44.780018 -122.898460 318 2343ft 62kts
11-Jan-20 14:51 44.795324 -122.908113 319 1982ft 62kts
11-Jan-20 14:52 44.808476 -122.922086 322 2109ft 59kts
11-Jan-20 14:53 44.823198 -122.933019 331 1971ft 60kts
11-Jan-20 14:54 44.838594 -122.944209 324 1505ft 62kts
11-Jan-20 14:55 44.853229 -122.957239 330 983ft 61kts
11-Jan-20 14:56 44.868773 -122.968059 326 577ft 60kts
11-Jan-20 14:57 44.883479 -122.979966 323 565ft 59kts
11-Jan-20 14:58 44.898175 -122.991988 324 352ft 62kts
11-Jan-20 14:59 44.907853 -122.999951 332 210ft 0kts

Navigation Log

Ident Type
Flight plan parsing failed, navigation log unavailable